sensor_id;sensor_type;location;lat;lon;timestamp;pressure;altitude;pressure_sealevel;temperature;humidity
54453;BME280;40363;52.270;10.546;2024-03-08T00:01:00;101307.34;;;0.64;70.99
54453;BME280;40363;52.270;10.546;2024-03-08T00:03:38;101335.16;;;0.81;71.04
54453;BME280;40363;52.270;10.546;2024-03-08T00:06:33;101331.31;;;0.77;71.19
54453;BME280;40363;52.270;10.546;2024-03-08T00:13:10;101335.00;;;0.71;71.73
54453;BME280;40363;52.270;10.546;2024-03-08T00:19:48;101314.16;;;0.49;71.82
54453;BME280;40363;52.270;10.546;2024-03-08T01:10:15;101308.03;;;0.08;73.54
54453;BME280;40363;52.270;10.546;2024-03-08T01:12:42;101304.28;;;0.09;73.50
54453;BME280;40363;52.270;10.546;2024-03-08T01:15:10;101293.19;;;0.06;73.82
54453;BME280;40363;52.270;10.546;2024-03-08T01:17:37;101297.16;;;0.03;73.73
54453;BME280;40363;52.270;10.546;2024-03-08T01:20:04;101291.69;;;-0.02;73.76
54453;BME280;40363;52.270;10.546;2024-03-08T01:22:31;101297.16;;;0.03;74.04
54453;BME280;40363;52.270;10.546;2024-03-08T01:24:58;101289.66;;;0.05;73.92
54453;BME280;40363;52.270;10.546;2024-03-08T01:27:26;101287.31;;;0.09;74.04
54453;BME280;40363;52.270;10.546;2024-03-08T01:29:53;101274.63;;;0.09;74.21
54453;BME280;40363;52.270;10.546;2024-03-08T01:32:19;101280.59;;;0.11;74.35
54453;BME280;40363;52.270;10.546;2024-03-08T01:34:48;101273.81;;;0.09;74.30
54453;BME280;40363;52.270;10.546;2024-03-08T01:37:15;101269.16;;;0.04;74.79
54453;BME280;40363;52.270;10.546;2024-03-08T01:39:41;101265.41;;;0.05;74.70
54453;BME280;40363;52.270;10.546;2024-03-08T01:42:08;101261.53;;;0.01;74.70
54453;BME280;40363;52.270;10.546;2024-03-08T01:44:39;101256.31;;;-0.06;74.83
54453;BME280;40363;52.270;10.546;2024-03-08T01:47:06;101258.44;;;-0.08;75.16
54453;BME280;40363;52.270;10.546;2024-03-08T01:49:33;101250.59;;;-0.09;74.96
54453;BME280;40363;52.270;10.546;2024-03-08T01:52:00;101253.63;;;-0.06;75.23
54453;BME280;40363;52.270;10.546;2024-03-08T01:54:27;101248.47;;;-0.07;75.19
54453;BME280;40363;52.270;10.546;2024-03-08T01:56:56;101241.47;;;-0.08;75.17
54453;BME280;40363;52.270;10.546;2024-03-08T01:59:24;101235.00;;;-0.07;75.04
54453;BME280;40363;52.270;10.546;2024-03-08T02:01:55;101234.19;;;-0.08;74.78
54453;BME280;40363;52.270;10.546;2024-03-08T02:04:22;101239.25;;;-0.11;74.91
54453;BME280;40363;52.270;10.546;2024-03-08T02:06:49;101231.63;;;-0.14;75.15
54453;BME280;40363;52.270;10.546;2024-03-08T02:09:17;101229.66;;;-0.19;75.29
54453;BME280;40363;52.270;10.546;2024-03-08T02:11:43;101229.34;;;-0.23;75.20
54453;BME280;40363;52.270;10.546;2024-03-08T02:14:11;101219.28;;;-0.27;75.53
54453;BME280;40363;52.270;10.546;2024-03-08T02:16:38;101214.72;;;-0.27;75.30
54453;BME280;40363;52.270;10.546;2024-03-08T02:19:06;101216.56;;;-0.27;75.41
54453;BME280;40363;52.270;10.546;2024-03-08T02:21:36;101212.50;;;-0.30;75.46
54453;BME280;40363;52.270;10.546;2024-03-08T02:24:04;101214.88;;;-0.33;75.85
54453;BME280;40363;52.270;10.546;2024-03-08T02:26:30;101200.72;;;-0.41;76.21
54453;BME280;40363;52.270;10.546;2024-03-08T02:28:57;101198.84;;;-0.40;76.15
54453;BME280;40363;52.270;10.546;2024-03-08T02:31:23;101200.38;;;-0.44;76.50
54453;BME280;40363;52.270;10.546;2024-03-08T02:33:50;101195.84;;;-0.44;76.56
54453;BME280;40363;52.270;10.546;2024-03-08T02:36:16;101186.34;;;-0.46;76.59
54453;BME280;40363;52.270;10.546;2024-03-08T02:38:44;101186.81;;;-0.49;77.00
54453;BME280;40363;52.270;10.546;2024-03-08T02:41:11;101187.91;;;-0.50;76.84
54453;BME280;40363;52.270;10.546;2024-03-08T02:43:38;101187.66;;;-0.49;76.56
54453;BME280;40363;52.270;10.546;2024-03-08T02:46:04;101186.59;;;-0.48;76.62
54453;BME280;40363;52.270;10.546;2024-03-08T02:48:31;101189.53;;;-0.49;76.50
54453;BME280;40363;52.270;10.546;2024-03-08T02:50:58;101187.66;;;-0.49;76.67
54453;BME280;40363;52.270;10.546;2024-03-08T02:53:24;101192.53;;;-0.46;76.73
54453;BME280;40363;52.270;10.546;2024-03-08T02:55:52;101196.56;;;-0.48;76.62
54453;BME280;40363;52.270;10.546;2024-03-08T02:58:20;101194.66;;;-0.48;76.56
54453;BME280;40363;52.270;10.546;2024-03-08T03:00:47;101196.56;;;-0.48;76.45
54453;BME280;40363;52.270;10.546;2024-03-08T03:03:14;101188.47;;;-0.48;76.09
54453;BME280;40363;52.270;10.546;2024-03-08T03:05:40;101189.03;;;-0.46;76.45
54453;BME280;40363;52.270;10.546;2024-03-08T03:08:07;101184.13;;;-0.49;75.97
54453;BME280;40363;52.270;10.546;2024-03-08T03:10:36;101186.34;;;-0.46;75.85
54453;BME280;40363;52.270;10.546;2024-03-08T03:13:04;101183.09;;;-0.48;75.75
54453;BME280;40363;52.270;10.546;2024-03-08T03:15:31;101183.81;;;-0.53;76.00
54453;BME280;40363;52.270;10.546;2024-03-08T03:17:59;101186.50;;;-0.53;76.03
54453;BME280;40363;52.270;10.546;2024-03-08T03:20:25;101184.88;;;-0.54;75.69
54453;BME280;40363;52.270;10.546;2024-03-08T03:22:57;101180.34;;;-0.65;76.28
54453;BME280;40363;52.270;10.546;2024-03-08T03:25:26;101181.88;;;-0.69;76.61
54453;BME280;40363;52.270;10.546;2024-03-08T03:27:58;101182.72;;;-0.69;76.62
54453;BME280;40363;52.270;10.546;2024-03-08T03:30:27;101169.16;;;-0.74;76.96
54453;BME280;40363;52.270;10.546;2024-03-08T03:32:58;101168.56;;;-0.76;76.93
54453;BME280;40363;52.270;10.546;2024-03-08T03:35:26;101171.00;;;-0.75;76.92
54453;BME280;40363;52.270;10.546;2024-03-08T03:37:52;101162.59;;;-0.78;77.12
54453;BME280;40363;52.270;10.546;2024-03-08T03:40:31;101164.72;;;-0.80;76.93
54453;BME280;40363;52.270;10.546;2024-03-08T03:42:57;101166.84;;;-0.82;76.96
54453;BME280;40363;52.270;10.546;2024-03-08T03:45:26;101176.06;;;-0.78;76.57
54453;BME280;40363;52.270;10.546;2024-03-08T03:48:03;101166.00;;;-0.83;77.33
54453;BME280;40363;52.270;10.546;2024-03-08T03:50:44;101167.31;;;-0.85;77.00
54453;BME280;40363;52.270;10.546;2024-03-08T03:53:11;101161.94;;;-0.85;77.13
54453;BME280;40363;52.270;10.546;2024-03-08T03:55:38;101156.94;;;-0.94;77.35
54453;BME280;40363;52.270;10.546;2024-03-08T03:58:05;101155.66;;;-0.91;77.46
54453;BME280;40363;52.270;10.546;2024-03-08T04:00:33;101146.41;;;-0.95;77.42
54453;BME280;40363;52.270;10.546;2024-03-08T04:02:59;101162.78;;;-0.97;77.74
54453;BME280;40363;52.270;10.546;2024-03-08T04:05:26;101157.31;;;-1.02;77.27
54453;BME280;40363;52.270;10.546;2024-03-08T04:07:53;101157.53;;;-1.03;77.19
54453;BME280;40363;52.270;10.546;2024-03-08T04:10:19;101156.16;;;-1.06;77.25
54453;BME280;40363;52.270;10.546;2024-03-08T04:12:46;101156.38;;;-1.07;77.20
54453;BME280;40363;52.270;10.546;2024-03-08T04:15:13;101151.72;;;-1.12;77.48
54453;BME280;40363;52.270;10.546;2024-03-08T04:17:42;101154.41;;;-1.12;77.64
54453;BME280;40363;52.270;10.546;2024-03-08T04:20:11;101159.22;;;-1.14;77.46
54453;BME280;40363;52.270;10.546;2024-03-08T04:22:40;101156.75;;;-1.16;77.66
54453;BME280;40363;52.270;10.546;2024-03-08T04:25:07;101150.38;;;-1.26;78.01
54453;BME280;40363;52.270;10.546;2024-03-08T04:27:35;101150.00;;;-1.30;78.26
54453;BME280;40363;52.270;10.546;2024-03-08T04:30:02;101151.31;;;-1.33;78.21
54453;BME280;40363;52.270;10.546;2024-03-08T04:32:29;101157.16;;;-1.36;78.50
54453;BME280;40363;52.270;10.546;2024-03-08T04:34:58;101145.34;;;-1.35;78.48
54453;BME280;40363;52.270;10.546;2024-03-08T04:37:26;101153.88;;;-1.38;78.57
54453;BME280;40363;52.270;10.546;2024-03-08T04:39:55;101164.06;;;-1.40;78.42
54453;BME280;40363;52.270;10.546;2024-03-08T04:42:21;101157.16;;;-1.36;78.48
54453;BME280;40363;52.270;10.546;2024-03-08T04:44:48;101153.06;;;-1.38;78.63
54453;BME280;40363;52.270;10.546;2024-03-08T04:47:15;101149.78;;;-1.40;78.48
54453;BME280;40363;52.270;10.546;2024-03-08T04:49:43;101147.94;;;-1.40;78.49
54453;BME280;40363;52.270;10.546;2024-03-08T04:52:11;101150.63;;;-1.40;78.62
54453;BME280;40363;52.270;10.546;2024-03-08T04:54:37;101152.22;;;-1.39;78.65
54453;BME280;40363;52.270;10.546;2024-03-08T04:57:04;101145.72;;;-1.43;78.56
54453;BME280;40363;52.270;10.546;2024-03-08T04:59:31;101151.09;;;-1.43;78.62
54453;BME280;40363;52.270;10.546;2024-03-08T05:01:57;101148.41;;;-1.43;78.65
54453;BME280;40363;52.270;10.546;2024-03-08T05:04:24;101148.97;;;-1.41;78.61
54453;BME280;40363;52.270;10.546;2024-03-08T05:06:51;101153.88;;;-1.38;78.53
54453;BME280;40363;52.270;10.546;2024-03-08T05:09:20;101153.66;;;-1.36;78.52
54453;BME280;40363;52.270;10.546;2024-03-08T05:11:47;101151.31;;;-1.33;78.41
54453;BME280;40363;52.270;10.546;2024-03-08T05:14:14;101150.50;;;-1.33;78.39
54453;BME280;40363;52.270;10.546;2024-03-08T05:16:42;101148.03;;;-1.35;78.32
54453;BME280;40363;52.270;10.546;2024-03-08T05:19:09;101150.13;;;-1.37;78.75
54453;BME280;40363;52.270;10.546;2024-03-08T05:21:35;101152.81;;;-1.37;78.43
54453;BME280;40363;52.270;10.546;2024-03-08T05:24:02;101156.09;;;-1.35;78.61
54453;BME280;40363;52.270;10.546;2024-03-08T05:26:31;101157.50;;;-1.32;78.32
54453;BME280;40363;52.270;10.546;2024-03-08T05:28:58;101154.94;;;-1.39;78.58
54453;BME280;40363;52.270;10.546;2024-03-08T05:31:25;101151.09;;;-1.43;78.88
54453;BME280;40363;52.270;10.546;2024-03-08T05:33:53;101158.31;;;-1.43;78.86
54453;BME280;40363;52.270;10.546;2024-03-08T05:36:21;101153.19;;;-1.45;79.00
54453;BME280;40363;52.270;10.546;2024-03-08T05:38:47;101152.59;;;-1.47;78.94
54453;BME280;40363;52.270;10.546;2024-03-08T05:41:15;101151.44;;;-1.51;78.92
54453;BME280;40363;52.270;10.546;2024-03-08T05:43:44;101147.72;;;-1.50;79.05
54453;BME280;40363;52.270;10.546;2024-03-08T05:46:10;101146.28;;;-1.53;79.28
54453;BME280;40363;52.270;10.546;2024-03-08T05:48:37;101141.72;;;-1.52;79.30
54453;BME280;40363;52.270;10.546;2024-03-08T05:51:04;101134.13;;;-1.55;79.22
54453;BME280;40363;52.270;10.546;2024-03-08T05:53:31;101148.66;;;-1.56;79.15
54453;BME280;40363;52.270;10.546;2024-03-08T05:55:57;101141.16;;;-1.54;79.14
54453;BME280;40363;52.270;10.546;2024-03-08T05:58:27;101145.03;;;-1.50;79.11
54453;BME280;40363;52.270;10.546;2024-03-08T06:00:56;101143.47;;;-1.46;79.11
54453;BME280;40363;52.270;10.546;2024-03-08T06:03:23;101144.88;;;-1.43;79.13
54453;BME280;40363;52.270;10.546;2024-03-08T06:05:50;101145.72;;;-1.43;79.02
54453;BME280;40363;52.270;10.546;2024-03-08T06:08:16;101145.00;;;-1.38;78.55
54453;BME280;40363;52.270;10.546;2024-03-08T06:10:44;101150.97;;;-1.36;78.50
54453;BME280;40363;52.270;10.546;2024-03-08T06:13:11;101146.38;;;-1.36;78.26
54453;BME280;40363;52.270;10.546;2024-03-08T06:15:38;101144.28;;;-1.34;78.48
54453;BME280;40363;52.270;10.546;2024-03-08T06:18:06;101143.81;;;-1.31;78.10
54453;BME280;40363;52.270;10.546;2024-03-08T06:20:36;101147.69;;;-1.38;78.08
54453;BME280;40363;52.270;10.546;2024-03-08T06:23:02;101149.06;;;-1.36;78.09
54453;BME280;40363;52.270;10.546;2024-03-08T06:25:29;101143.22;;;-1.33;78.17
54453;BME280;40363;52.270;10.546;2024-03-08T06:27:56;101151.97;;;-1.25;77.81
54453;BME280;40363;52.270;10.546;2024-03-08T06:30:23;101143.44;;;-1.22;77.71
54453;BME280;40363;52.270;10.546;2024-03-08T06:32:49;101145.66;;;-1.19;77.62
54453;BME280;40363;52.270;10.546;2024-03-08T06:35:18;101140.72;;;-1.10;77.46
54453;BME280;40363;52.270;10.546;2024-03-08T06:37:45;101140.00;;;-1.06;77.39
54453;BME280;40363;52.270;10.546;2024-03-08T06:40:12;101129.19;;;-0.94;76.99
54453;BME280;40363;52.270;10.546;2024-03-08T06:42:40;101135.25;;;-0.87;77.05
54453;BME280;40363;52.270;10.546;2024-03-08T06:45:07;101133.78;;;-0.78;76.79
54453;BME280;40363;52.270;10.546;2024-03-08T06:47:35;101134.56;;;-0.65;77.07
54453;BME280;40363;52.270;10.546;2024-03-08T06:50:02;101143.50;;;-0.48;76.17
54453;BME280;40363;52.270;10.546;2024-03-08T06:52:32;101134.38;;;-0.30;75.85
54453;BME280;40363;52.270;10.546;2024-03-08T06:54:59;101135.34;;;-0.19;74.40
54453;BME280;40363;52.270;10.546;2024-03-08T06:57:27;101139.28;;;-0.10;74.30
54453;BME280;40363;52.270;10.546;2024-03-08T06:59:54;101145.16;;;0.04;73.94
54453;BME280;40363;52.270;10.546;2024-03-08T07:02:22;101139.34;;;0.12;73.12
54453;BME280;40363;52.270;10.546;2024-03-08T07:04:49;101137.06;;;0.21;72.71
54453;BME280;40363;52.270;10.546;2024-03-08T07:07:16;101138.19;;;0.25;72.65
54453;BME280;40363;52.270;10.546;2024-03-08T07:09:47;101141.44;;;0.44;72.06
54453;BME280;40363;52.270;10.546;2024-03-08T07:12:15;101140.09;;;0.47;72.07
54453;BME280;40363;52.270;10.546;2024-03-08T07:14:42;101138.56;;;0.73;71.59
54453;BME280;40363;52.270;10.546;2024-03-08T07:17:10;101141.25;;;0.95;70.21
54453;BME280;40363;52.270;10.546;2024-03-08T07:19:37;101137.47;;;1.18;69.63
54453;BME280;40363;52.270;10.546;2024-03-08T07:22:04;101132.28;;;1.39;68.80
54453;BME280;40363;52.270;10.546;2024-03-08T07:24:34;101136.44;;;1.52;68.17
54453;BME280;40363;52.270;10.546;2024-03-08T07:27:16;101130.88;;;1.63;67.80
54453;BME280;40363;52.270;10.546;2024-03-08T07:29:43;101128.66;;;1.88;67.62
54453;BME280;40363;52.270;10.546;2024-03-08T07:32:10;101122.03;;;2.11;65.88
54453;BME280;40363;52.270;10.546;2024-03-08T07:34:46;101126.22;;;2.29;65.61
54453;BME280;40363;52.270;10.546;2024-03-08T07:37:13;101126.06;;;2.51;64.93
54453;BME280;40363;52.270;10.546;2024-03-08T07:39:40;101128.59;;;2.68;63.58
54453;BME280;40363;52.270;10.546;2024-03-08T07:42:07;101114.84;;;2.85;63.80
54453;BME280;40363;52.270;10.546;2024-03-08T07:44:35;101114.63;;;3.02;63.59
54453;BME280;40363;52.270;10.546;2024-03-08T07:47:01;101111.94;;;3.02;63.04
54453;BME280;40363;52.270;10.546;2024-03-08T07:49:28;101117.69;;;3.31;62.60
54453;BME280;40363;52.270;10.546;2024-03-08T07:51:55;101116.59;;;3.37;61.82
54453;BME280;40363;52.270;10.546;2024-03-08T07:54:22;101115.81;;;3.47;61.31
54453;BME280;40363;52.270;10.546;2024-03-08T07:56:49;101108.50;;;3.47;61.29
54453;BME280;40363;52.270;10.546;2024-03-08T07:59:16;101109.84;;;4.12;59.96
54453;BME280;40363;52.270;10.546;2024-03-08T08:01:44;101102.47;;;4.33;59.20
54453;BME280;40363;52.270;10.546;2024-03-08T08:04:12;101103.16;;;4.74;58.65
54453;BME280;40363;52.270;10.546;2024-03-08T08:06:41;101104.47;;;4.77;57.45
54453;BME280;40363;52.270;10.546;2024-03-08T08:09:07;101100.97;;;4.76;58.09
54453;BME280;40363;52.270;10.546;2024-03-08T08:11:39;101086.19;;;4.98;58.42
54453;BME280;40363;52.270;10.546;2024-03-08T08:14:09;101092.69;;;5.02;57.05
54453;BME280;40363;52.270;10.546;2024-03-08T08:16:35;101091.56;;;5.08;57.52
54453;BME280;40363;52.270;10.546;2024-03-08T08:19:04;101083.50;;;4.93;57.15
54453;BME280;40363;52.270;10.546;2024-03-08T08:21:33;101081.81;;;5.47;56.39
54453;BME280;40363;52.270;10.546;2024-03-08T08:23:59;101084.97;;;5.59;56.12
54453;BME280;40363;52.270;10.546;2024-03-08T08:26:28;101074.28;;;5.68;55.15
54453;BME280;40363;52.270;10.546;2024-03-08T08:28:55;101078.94;;;5.96;55.37
54453;BME280;40363;52.270;10.546;2024-03-08T08:31:22;101077.97;;;5.82;54.81
54453;BME280;40363;52.270;10.546;2024-03-08T08:33:48;101077.78;;;5.73;55.89
54453;BME280;40363;52.270;10.546;2024-03-08T08:36:16;101070.22;;;5.94;54.97
54453;BME280;40363;52.270;10.546;2024-03-08T08:38:43;101070.34;;;6.13;54.80
54453;BME280;40363;52.270;10.546;2024-03-08T08:41:11;101066.13;;;6.26;53.49
54453;BME280;40363;52.270;10.546;2024-03-08T08:43:38;101056.69;;;6.43;53.93
54453;BME280;40363;52.270;10.546;2024-03-08T08:46:04;101054.28;;;6.60;52.01
54453;BME280;40363;52.270;10.546;2024-03-08T08:48:31;101050.78;;;6.98;51.23
54453;BME280;40363;52.270;10.546;2024-03-08T08:50:58;101057.03;;;6.79;52.30
54453;BME280;40363;52.270;10.546;2024-03-08T08:53:26;101047.81;;;6.56;52.64
54453;BME280;40363;52.270;10.546;2024-03-08T08:55:53;101052.34;;;7.04;52.26
54453;BME280;40363;52.270;10.546;2024-03-08T08:58:19;101051.91;;;6.97;51.44
54453;BME280;40363;52.270;10.546;2024-03-08T09:00:47;101058.03;;;7.59;50.87
54453;BME280;40363;52.270;10.546;2024-03-08T09:03:15;101051.44;;;7.28;51.26
54453;BME280;40363;52.270;10.546;2024-03-08T09:05:42;101044.75;;;7.01;51.54
54453;BME280;40363;52.270;10.546;2024-03-08T09:08:09;101052.25;;;6.90;51.33
54453;BME280;40363;52.270;10.546;2024-03-08T09:10:36;101040.09;;;7.20;50.71
54453;BME280;40363;52.270;10.546;2024-03-08T09:13:04;101041.44;;;6.85;52.05
54453;BME280;40363;52.270;10.546;2024-03-08T09:15:31;101033.34;;;6.80;53.20
54453;BME280;40363;52.270;10.546;2024-03-08T09:17:58;101034.28;;;6.70;52.51
54453;BME280;40363;52.270;10.546;2024-03-08T09:20:25;101039.28;;;7.01;53.41
54453;BME280;40363;52.270;10.546;2024-03-08T09:22:52;101036.78;;;7.04;51.87
54453;BME280;40363;52.270;10.546;2024-03-08T09:25:20;101034.50;;;6.93;52.91
54453;BME280;40363;52.270;10.546;2024-03-08T09:27:48;101025.72;;;6.96;51.78
54453;BME280;40363;52.270;10.546;2024-03-08T09:30:15;101016.72;;;6.57;52.99
54453;BME280;40363;52.270;10.546;2024-03-08T09:32:43;101017.84;;;6.56;53.56
54453;BME280;40363;52.270;10.546;2024-03-08T09:35:10;101011.56;;;6.56;52.89
54453;BME280;40363;52.270;10.546;2024-03-08T09:37:36;101004.66;;;6.44;53.36
54453;BME280;40363;52.270;10.546;2024-03-08T09:40:05;100996.78;;;7.00;51.88
54453;BME280;40363;52.270;10.546;2024-03-08T09:42:34;100994.38;;;6.98;53.34
54453;BME280;40363;52.270;10.546;2024-03-08T09:45:05;100983.28;;;7.41;52.69
54453;BME280;40363;52.270;10.546;2024-03-08T09:47:36;100981.41;;;6.90;52.81
54453;BME280;40363;52.270;10.546;2024-03-08T09:50:05;100982.59;;;6.65;53.65
54453;BME280;40363;52.270;10.546;2024-03-08T09:52:34;100973.81;;;6.68;53.57
54453;BME280;40363;52.270;10.546;2024-03-08T09:55:01;100969.84;;;6.60;53.28
54453;BME280;40363;52.270;10.546;2024-03-08T09:57:27;100967.03;;;6.84;52.80
54453;BME280;40363;52.270;10.546;2024-03-08T09:59:54;100952.28;;;7.04;52.45
54453;BME280;40363;52.270;10.546;2024-03-08T10:02:23;100954.66;;;7.25;52.73
54453;BME280;40363;52.270;10.546;2024-03-08T10:04:51;100952.06;;;7.34;53.90
54453;BME280;40363;52.270;10.546;2024-03-08T10:07:18;100959.88;;;7.07;52.73
54453;BME280;40363;52.270;10.546;2024-03-08T10:09:45;100951.34;;;6.95;53.18
54453;BME280;40363;52.270;10.546;2024-03-08T10:12:15;100948.88;;;7.13;53.38
54453;BME280;40363;52.270;10.546;2024-03-08T10:14:42;100950.75;;;6.79;53.37
54453;BME280;40363;52.270;10.546;2024-03-08T10:17:09;100948.41;;;6.92;53.89
54453;BME280;40363;52.270;10.546;2024-03-08T10:19:37;100949.44;;;6.77;53.38
54453;BME280;40363;52.270;10.546;2024-03-08T10:22:04;100943.41;;;7.13;54.01
54453;BME280;40363;52.270;10.546;2024-03-08T10:24:32;100943.94;;;7.15;53.42
54453;BME280;40363;52.270;10.546;2024-03-08T10:27:00;100942.72;;;7.07;53.99
54453;BME280;40363;52.270;10.546;2024-03-08T10:29:30;100944.88;;;7.24;52.52
54453;BME280;40363;52.270;10.546;2024-03-08T10:31:57;100935.94;;;7.51;53.67
54453;BME280;40363;52.270;10.546;2024-03-08T10:34:24;100938.56;;;7.56;52.12
54453;BME280;40363;52.270;10.546;2024-03-08T10:36:52;100934.34;;;7.64;52.48
54453;BME280;40363;52.270;10.546;2024-03-08T10:39:22;100938.47;;;7.48;51.97
54453;BME280;40363;52.270;10.546;2024-03-08T10:41:53;100930.09;;;7.72;52.57
54453;BME280;40363;52.270;10.546;2024-03-08T10:44:48;100934.00;;;7.38;52.44
54453;BME280;40363;52.270;10.546;2024-03-08T10:47:19;100926.88;;;7.83;52.16
54453;BME280;40363;52.270;10.546;2024-03-08T10:49:54;100925.75;;;7.85;51.00
54453;BME280;40363;52.270;10.546;2024-03-08T10:52:23;100923.34;;;7.83;50.36
54453;BME280;40363;52.270;10.546;2024-03-08T10:54:52;100922.31;;;8.07;50.44
54453;BME280;40363;52.270;10.546;2024-03-08T10:57:22;100921.31;;;7.75;49.41
54453;BME280;40363;52.270;10.546;2024-03-08T10:59:49;100909.19;;;7.81;50.08
54453;BME280;40363;52.270;10.546;2024-03-08T11:02:17;100906.75;;;7.93;50.47
54453;BME280;40363;52.270;10.546;2024-03-08T11:04:48;100886.47;;;8.22;49.21
54453;BME280;40363;52.270;10.546;2024-03-08T11:07:16;100898.63;;;8.16;49.98
54453;BME280;40363;52.270;10.546;2024-03-08T11:09:48;100894.31;;;8.01;50.49
54453;BME280;40363;52.270;10.546;2024-03-08T11:12:19;100893.09;;;7.93;51.43
54453;BME280;40363;52.270;10.546;2024-03-08T11:14:47;100900.97;;;7.39;51.68
54453;BME280;40363;52.270;10.546;2024-03-08T11:17:15;100883.09;;;7.47;51.60
54453;BME280;40363;52.270;10.546;2024-03-08T11:19:46;100876.72;;;7.52;52.57
54453;BME280;40363;52.270;10.546;2024-03-08T11:22:25;100882.13;;;7.10;53.60
54453;BME280;40363;52.270;10.546;2024-03-08T11:25:01;100874.34;;;6.70;53.45
54453;BME280;40363;52.270;10.546;2024-03-08T11:27:29;100866.38;;;6.74;53.85
54453;BME280;40363;52.270;10.546;2024-03-08T11:30:00;100869.88;;;6.23;54.93
54453;BME280;40363;52.270;10.546;2024-03-08T11:32:35;100864.06;;;6.29;55.21
54453;BME280;40363;52.270;10.546;2024-03-08T11:35:06;100848.81;;;6.47;55.42
54453;BME280;40363;52.270;10.546;2024-03-08T11:37:34;100845.22;;;6.52;53.56
54453;BME280;40363;52.270;10.546;2024-03-08T11:40:11;100838.03;;;6.75;54.24
54453;BME280;40363;52.270;10.546;2024-03-08T11:42:44;100845.47;;;7.02;54.64
54453;BME280;40363;52.270;10.546;2024-03-08T11:45:12;100830.75;;;7.03;53.12
54453;BME280;40363;52.270;10.546;2024-03-08T11:47:39;100851.22;;;7.01;53.78
54453;BME280;40363;52.270;10.546;2024-03-08T11:50:11;100845.72;;;6.54;53.29
54453;BME280;40363;52.270;10.546;2024-03-08T11:52:38;100849.44;;;6.77;54.12
54453;BME280;40363;52.270;10.546;2024-03-08T11:55:07;100846.25;;;6.89;52.31
54453;BME280;40363;52.270;10.546;2024-03-08T11:57:34;100830.78;;;6.84;53.20
54453;BME280;40363;52.270;10.546;2024-03-08T12:00:01;100822.31;;;6.86;52.29
54453;BME280;40363;52.270;10.546;2024-03-08T12:02:32;100829.53;;;6.63;51.66
54453;BME280;40363;52.270;10.546;2024-03-08T12:05:01;100814.69;;;6.69;51.92
54453;BME280;40363;52.270;10.546;2024-03-08T12:07:29;100809.19;;;6.88;51.76
54453;BME280;40363;52.270;10.546;2024-03-08T12:10:18;100808.88;;;6.89;51.68
54453;BME280;40363;52.270;10.546;2024-03-08T12:12:47;100805.97;;;7.00;52.17
54453;BME280;40363;52.270;10.546;2024-03-08T12:15:15;100802.25;;;7.10;52.08
54453;BME280;40363;52.270;10.546;2024-03-08T12:17:43;100794.56;;;6.98;51.47
54453;BME280;40363;52.270;10.546;2024-03-08T12:20:15;100787.81;;;6.81;52.14
54453;BME280;40363;52.270;10.546;2024-03-08T12:22:43;100799.53;;;7.10;52.15
54453;BME280;40363;52.270;10.546;2024-03-08T12:25:11;100786.00;;;7.04;51.21
54453;BME280;40363;52.270;10.546;2024-03-08T12:27:40;100774.09;;;7.14;49.84
54453;BME280;40363;52.270;10.546;2024-03-08T12:33:20;100772.88;;;7.06;50.48
54453;BME280;40363;52.270;10.546;2024-03-08T12:36:10;100732.72;;;7.12;51.73
54453;BME280;40363;52.270;10.546;2024-03-08T12:38:47;100753.91;;;7.29;51.49
54453;BME280;40363;52.270;10.546;2024-03-08T12:41:38;100735.53;;;7.21;52.07
54453;BME280;40363;52.270;10.546;2024-03-08T12:47:14;100747.75;;;7.23;50.46
54453;BME280;40363;52.270;10.546;2024-03-08T12:50:11;100740.19;;;7.20;50.31
54453;BME280;40363;52.270;10.546;2024-03-08T12:52:54;100740.06;;;7.25;50.65
54453;BME280;40363;52.270;10.546;2024-03-08T12:56:00;100731.69;;;7.22;50.54
54453;BME280;40363;52.270;10.546;2024-03-08T12:58:27;100720.66;;;7.13;50.12
54453;BME280;40363;52.270;10.546;2024-03-08T13:01:05;100713.03;;;7.15;50.44
54453;BME280;40363;52.270;10.546;2024-03-08T13:03:37;100706.03;;;7.23;49.19
54453;BME280;40363;52.270;10.546;2024-03-08T13:06:06;100714.03;;;6.92;49.70
54453;BME280;40363;52.270;10.546;2024-03-08T13:08:34;100723.94;;;7.15;50.39
54453;BME280;40363;52.270;10.546;2024-03-08T13:11:06;100703.72;;;7.16;50.39
54453;BME280;40363;52.270;10.546;2024-03-08T13:13:35;100711.59;;;7.18;50.07
54453;BME280;40363;52.270;10.546;2024-03-08T13:16:14;100709.06;;;7.21;50.02
54453;BME280;40363;52.270;10.546;2024-03-08T13:18:42;100701.47;;;7.18;49.65
54453;BME280;40363;52.270;10.546;2024-03-08T13:21:14;100713.59;;;7.26;50.21
54453;BME280;40363;52.270;10.546;2024-03-08T13:23:44;100691.09;;;7.20;51.37
54453;BME280;40363;52.270;10.546;2024-03-08T13:26:15;100698.66;;;7.37;51.38
54453;BME280;40363;52.270;10.546;2024-03-08T13:28:43;100692.19;;;7.33;51.16
54453;BME280;40363;52.270;10.546;2024-03-08T13:31:09;100703.16;;;7.42;51.83
54453;BME280;40363;52.270;10.546;2024-03-08T13:33:37;100694.25;;;7.50;51.31
54453;BME280;40363;52.270;10.546;2024-03-08T13:36:06;100702.63;;;7.54;51.23
54453;BME280;40363;52.270;10.546;2024-03-08T13:38:42;100696.06;;;7.55;50.89
54453;BME280;40363;52.270;10.546;2024-03-08T13:41:09;100693.97;;;7.52;50.82
54453;BME280;40363;52.270;10.546;2024-03-08T13:43:39;100681.56;;;7.45;50.30
54453;BME280;40363;52.270;10.546;2024-03-08T13:46:06;100684.97;;;7.51;50.77
54453;BME280;40363;52.270;10.546;2024-03-08T13:48:33;100696.06;;;7.55;51.51
54453;BME280;40363;52.270;10.546;2024-03-08T13:51:01;100676.28;;;7.49;50.92
54453;BME280;40363;52.270;10.546;2024-03-08T13:53:27;100685.41;;;7.44;51.38
54453;BME280;40363;52.270;10.546;2024-03-08T13:55:54;100663.69;;;7.39;51.19